createdAt,value
2022-11-08T00:01:44.713Z,100.00
2022-11-08T00:08:31.073Z,100.00
2022-11-08T00:12:01.548Z,100.00
2022-11-08T00:15:19.864Z,100.00
2022-11-08T00:18:36.073Z,100.00
2022-11-08T00:21:52.240Z,100.00
2022-11-08T00:25:09.271Z,100.00
2022-11-08T00:28:27.743Z,100.00
2022-11-08T00:31:44.068Z,100.00
2022-11-08T00:35:01.287Z,100.00
2022-11-08T00:38:20.487Z,100.00
2022-11-08T00:41:35.899Z,100.00
2022-11-08T00:44:51.912Z,100.00
2022-11-08T00:48:08.075Z,100.00
2022-11-08T00:51:25.527Z,100.00
2022-11-08T00:54:42.054Z,100.00
2022-11-08T00:57:59.936Z,100.00
2022-11-08T01:01:27.203Z,100.00
2022-11-08T01:04:43.889Z,100.00
2022-11-08T01:08:03.461Z,100.00
2022-11-08T01:11:23.893Z,100.00
2022-11-08T01:14:41.802Z,100.00
2022-11-08T01:17:58.099Z,100.00
2022-11-08T01:21:15.323Z,100.00
2022-11-08T01:24:32.860Z,100.00
2022-11-08T01:27:49.198Z,100.00
2022-11-08T01:31:07.344Z,100.00
2022-11-08T01:34:23.976Z,100.00
2022-11-08T01:37:40.665Z,100.00
2022-11-08T01:40:58.526Z,100.00
2022-11-08T01:44:22.471Z,100.00
2022-11-08T01:47:38.895Z,100.00
2022-11-08T01:50:55.242Z,100.00
2022-11-08T01:54:15.533Z,100.00
2022-11-08T01:57:36.844Z,100.00
2022-11-08T02:00:53.452Z,100.00
2022-11-08T02:04:11.262Z,100.00
2022-11-08T02:07:28.146Z,100.00
2022-11-08T02:10:48.287Z,100.00
2022-11-08T02:14:05.799Z,100.00
2022-11-08T02:17:22.524Z,100.00
2022-11-08T02:20:39.947Z,100.00
2022-11-08T02:23:58.590Z,100.00
2022-11-08T02:27:15.061Z,100.00
2022-11-08T02:30:31.969Z,100.00
2022-11-08T02:33:49.575Z,100.00
2022-11-08T02:37:16.369Z,100.00
2022-11-08T02:40:32.515Z,100.00
2022-11-08T02:43:48.751Z,100.00
2022-11-08T02:47:08.101Z,100.00
2022-11-08T02:50:24.986Z,100.00
2022-11-08T02:53:41.835Z,100.00
2022-11-08T02:56:58.685Z,100.00
2022-11-08T03:00:21.106Z,100.00
2022-11-08T03:03:38.643Z,100.00
2022-11-08T03:06:54.942Z,100.00
2022-11-08T03:10:12.255Z,100.00
2022-11-08T03:13:29.298Z,100.00
2022-11-08T03:16:48.415Z,100.00
2022-11-08T03:20:04.570Z,100.00
2022-11-08T03:23:21.480Z,100.00
2022-11-08T03:26:38.978Z,100.00
2022-11-08T03:29:56.069Z,100.00
2022-11-08T03:33:12.720Z,100.00
2022-11-08T03:36:29.103Z,100.00
2022-11-08T03:39:45.736Z,100.00
2022-11-08T03:43:15.477Z,100.00
2022-11-08T03:46:32.526Z,100.00
2022-11-08T03:49:49.272Z,100.00
2022-11-08T03:53:07.985Z,100.00
2022-11-08T03:56:24.226Z,100.00
2022-11-08T03:59:40.305Z,100.00
2022-11-08T04:02:57.167Z,100.00
2022-11-08T04:06:15.262Z,100.00
2022-11-08T04:09:33.066Z,100.00
2022-11-08T04:13:05.149Z,100.00
2022-11-08T04:16:21.754Z,100.00
2022-11-08T04:19:55.285Z,100.00
2022-11-08T04:23:13.420Z,100.00
2022-11-08T04:26:32.136Z,100.00
2022-11-08T04:29:48.249Z,100.00
2022-11-08T04:33:07.973Z,100.00
2022-11-08T04:36:26.134Z,100.00
2022-11-08T04:39:42.735Z,100.00
2022-11-08T04:42:59.188Z,100.00
2022-11-08T04:46:18.450Z,100.00
2022-11-08T04:49:35.858Z,100.00
2022-11-08T04:52:57.977Z,100.00
2022-11-08T04:56:17.849Z,100.00
2022-11-08T04:59:34.879Z,100.00
2022-11-08T05:02:52.316Z,100.00
2022-11-08T05:06:13.882Z,100.00
2022-11-08T05:09:30.305Z,100.00
2022-11-08T05:12:46.648Z,100.00
2022-11-08T05:16:04.752Z,100.00
2022-11-08T05:19:25.950Z,100.00
2022-11-08T05:22:56.538Z,100.00
2022-11-08T05:26:14.000Z,100.00
2022-11-08T05:29:31.268Z,100.00
2022-11-08T05:32:47.877Z,100.00
2022-11-08T05:36:07.901Z,100.00
2022-11-08T05:39:28.258Z,100.00
2022-11-08T05:42:43.540Z,100.00
2022-11-08T05:46:00.565Z,100.00
2022-11-08T05:49:17.818Z,100.00
2022-11-08T05:52:35.239Z,100.00
2022-11-08T05:55:51.606Z,100.00
2022-11-08T05:59:08.009Z,100.00
2022-11-08T06:02:26.669Z,100.00
2022-11-08T06:05:45.688Z,100.00
2022-11-08T06:09:02.266Z,100.00
2022-11-08T06:12:19.229Z,100.00
2022-11-08T06:15:36.803Z,100.00
2022-11-08T06:18:53.810Z,100.00
2022-11-08T06:22:11.370Z,100.00
2022-11-08T06:25:29.407Z,100.00
2022-11-08T06:28:47.676Z,100.00
2022-11-08T06:32:05.251Z,100.00
2022-11-08T06:35:21.513Z,100.00
2022-11-08T06:38:38.492Z,100.00
2022-11-08T06:41:54.841Z,100.00
2022-11-08T06:45:12.057Z,100.00
2022-11-08T06:48:35.028Z,100.00
2022-11-08T06:51:49.842Z,100.00
2022-11-08T06:55:06.291Z,100.00
2022-11-08T06:58:22.796Z,100.00
2022-11-08T07:01:44.552Z,100.00
2022-11-08T07:04:57.916Z,100.00
2022-11-08T07:08:15.333Z,100.00
2022-11-08T07:11:33.192Z,100.00
2022-11-08T07:14:49.440Z,100.00
2022-11-08T07:18:10.221Z,100.00
2022-11-08T07:21:30.518Z,100.00
2022-11-08T07:24:47.251Z,100.00
2022-11-08T07:28:08.078Z,100.00
2022-11-08T07:31:24.604Z,100.00
2022-11-08T07:34:43.521Z,100.00
2022-11-08T07:38:01.523Z,100.00
2022-11-08T07:41:19.409Z,100.00
2022-11-08T07:44:37.030Z,100.00
2022-11-08T07:47:57.730Z,100.00
2022-11-08T07:51:14.477Z,100.00
2022-11-08T07:54:31.303Z,100.00
2022-11-08T07:57:47.552Z,100.00
2022-11-08T08:01:09.611Z,100.00
2022-11-08T08:04:27.225Z,100.00
2022-11-08T08:07:46.123Z,100.00
2022-11-08T08:11:06.619Z,100.00
2022-11-08T08:14:22.771Z,100.00
2022-11-08T08:17:40.030Z,100.00
2022-11-08T08:20:56.355Z,100.00
2022-11-08T08:24:14.139Z,100.00
2022-11-08T08:27:31.308Z,100.00
2022-11-08T08:30:48.182Z,100.00
2022-11-08T08:34:04.379Z,100.00
2022-11-08T08:37:21.619Z,100.00
2022-11-08T08:40:38.887Z,100.00
2022-11-08T08:43:55.331Z,100.00
2022-11-08T08:47:18.456Z,100.00
2022-11-08T08:50:39.370Z,100.00
2022-11-08T08:53:56.041Z,100.00
2022-11-08T08:57:12.210Z,100.00
2022-11-08T09:04:17.178Z,100.00
2022-11-08T09:07:48.999Z,100.00
2022-11-08T09:11:13.348Z,100.00
2022-11-08T09:14:29.702Z,100.00
2022-11-08T09:17:45.842Z,100.00
2022-11-08T09:21:05.256Z,100.00
2022-11-08T09:24:22.642Z,100.00
2022-11-08T09:27:39.803Z,100.00
2022-11-08T09:30:57.175Z,100.00
2022-11-08T09:34:15.197Z,100.00
2022-11-08T09:37:31.775Z,100.00
2022-11-08T09:40:57.055Z,100.00
2022-11-08T09:44:39.010Z,100.00
2022-11-08T09:48:03.074Z,100.00
2022-11-08T09:51:21.658Z,100.00
2022-11-08T09:54:39.336Z,100.00
2022-11-08T09:58:25.132Z,100.00
2022-11-08T10:01:44.143Z,100.00
2022-11-08T10:05:06.030Z,100.00
2022-11-08T10:08:29.138Z,100.00
2022-11-08T10:12:05.397Z,100.00
2022-11-08T10:15:33.568Z,100.00
2022-11-08T10:19:18.068Z,100.00
2022-11-08T10:25:54.835Z,100.00
2022-11-08T10:29:16.289Z,100.00
2022-11-08T10:32:35.866Z,100.00
2022-11-08T10:36:02.491Z,100.00
2022-11-08T10:39:26.580Z,100.00
2022-11-08T10:42:50.153Z,99.59
2022-11-08T10:46:06.791Z,99.87
2022-11-08T10:49:30.728Z,96.40
2022-11-08T10:52:53.232Z,99.08
2022-11-08T10:56:13.885Z,97.25
2022-11-08T10:59:41.195Z,96.74
2022-11-08T11:03:01.355Z,93.91
2022-11-08T11:06:33.417Z,96.09
2022-11-08T11:09:52.166Z,98.60
2022-11-08T11:13:17.848Z,94.46
2022-11-08T11:16:34.324Z,99.74
2022-11-08T11:20:00.767Z,95.71
2022-11-08T11:23:19.703Z,93.33
2022-11-08T11:26:43.478Z,91.52
2022-11-08T11:30:11.995Z,91.02
2022-11-08T11:33:35.333Z,90.36
2022-11-08T11:36:56.673Z,87.76
2022-11-08T11:40:29.221Z,86.14
2022-11-08T11:43:58.948Z,88.54
2022-11-08T11:47:20.686Z,88.00
2022-11-08T11:50:42.309Z,89.50
2022-11-08T11:53:59.031Z,88.33
2022-11-08T11:57:20.661Z,88.09
2022-11-08T12:00:36.997Z,88.61
2022-11-08T12:04:13.411Z,86.65
2022-11-08T12:07:35.964Z,87.27
2022-11-08T12:11:20.381Z,86.05
2022-11-08T12:14:56.857Z,85.35
2022-11-08T12:18:44.411Z,85.75
2022-11-08T12:22:04.848Z,85.83
2022-11-08T12:25:28.561Z,86.36
2022-11-08T12:29:00.844Z,84.61
2022-11-08T12:32:40.972Z,83.69
2022-11-08T12:39:23.812Z,82.87
2022-11-08T12:43:10.930Z,83.23
2022-11-08T12:46:28.688Z,84.55
2022-11-08T12:49:52.193Z,83.69
2022-11-08T12:53:35.076Z,84.30
2022-11-08T12:56:54.037Z,85.74
2022-11-08T13:00:20.219Z,85.80
2022-11-08T13:04:05.839Z,85.34
2022-11-08T13:10:47.728Z,86.11
2022-11-08T13:14:05.764Z,85.70
2022-11-08T13:17:31.354Z,85.84
2022-11-08T13:24:44.330Z,86.57
2022-11-08T13:27:57.305Z,87.21
2022-11-08T13:31:47.865Z,86.38
2022-11-08T13:35:10.705Z,85.74
2022-11-08T13:38:36.816Z,86.58
2022-11-08T13:42:12.853Z,86.70
2022-11-08T13:45:40.953Z,86.40
2022-11-08T13:49:11.410Z,86.83
2022-11-08T13:52:52.259Z,86.38
2022-11-08T13:56:27.007Z,86.39
2022-11-08T14:00:04.398Z,86.23
2022-11-08T14:04:02.785Z,86.21
2022-11-08T14:07:25.453Z,86.55
2022-11-08T14:10:47.808Z,86.66
2022-11-08T14:14:49.752Z,86.78
2022-11-08T14:18:10.365Z,87.15
2022-11-08T14:24:44.854Z,87.22
2022-11-08T14:28:01.248Z,87.74
2022-11-08T14:31:32.262Z,87.93
2022-11-08T14:34:48.667Z,88.48
2022-11-08T14:38:05.570Z,89.60
2022-11-08T14:41:27.679Z,92.75
2022-11-08T14:44:45.189Z,95.91
2022-11-08T14:48:07.345Z,98.30
2022-11-08T14:51:23.856Z,99.27
2022-11-08T14:54:49.692Z,100.00
2022-11-08T14:58:19.475Z,100.00
2022-11-08T15:01:37.238Z,100.00
2022-11-08T15:04:53.855Z,100.00
2022-11-08T15:08:15.935Z,100.00
2022-11-08T15:11:39.034Z,100.00
2022-11-08T15:15:04.468Z,100.00
2022-11-08T15:18:27.184Z,100.00
2022-11-08T15:21:47.611Z,100.00
2022-11-08T15:25:28.339Z,100.00
2022-11-08T15:28:44.702Z,100.00
2022-11-08T15:32:04.434Z,100.00
2022-11-08T15:35:37.688Z,100.00
2022-11-08T15:38:56.987Z,100.00
2022-11-08T15:43:10.274Z,100.00
2022-11-08T15:47:16.694Z,100.00
2022-11-08T15:50:41.007Z,100.00
2022-11-08T15:53:57.800Z,100.00
2022-11-08T15:57:15.915Z,100.00
2022-11-08T16:00:39.196Z,100.00
2022-11-08T16:03:56.581Z,100.00
2022-11-08T16:07:12.865Z,100.00
2022-11-08T16:10:35.983Z,100.00
2022-11-08T16:13:53.649Z,100.00
2022-11-08T16:17:10.827Z,100.00
2022-11-08T16:20:33.722Z,100.00
2022-11-08T16:23:50.503Z,100.00
2022-11-08T16:27:09.851Z,100.00
2022-11-08T16:30:29.910Z,100.00
2022-11-08T16:33:46.937Z,100.00
2022-11-08T16:37:04.236Z,100.00
2022-11-08T16:40:32.211Z,100.00
2022-11-08T16:43:48.558Z,100.00
2022-11-08T16:47:04.782Z,100.00
2022-11-08T16:50:28.864Z,100.00
2022-11-08T16:53:45.476Z,100.00
2022-11-08T16:57:28.288Z,100.00
2022-11-08T17:00:24.753Z,100.00
2022-11-08T17:03:42.625Z,100.00
2022-11-08T17:07:01.610Z,100.00
2022-11-08T17:10:25.112Z,100.00
2022-11-08T17:13:41.097Z,100.00
2022-11-08T17:16:57.235Z,100.00
2022-11-08T17:20:15.861Z,100.00
2022-11-08T17:23:32.094Z,100.00
2022-11-08T17:26:50.442Z,100.00
2022-11-08T17:30:07.345Z,100.00
2022-11-08T17:33:23.508Z,100.00
2022-11-08T17:36:39.404Z,100.00
2022-11-08T17:39:56.210Z,100.00
2022-11-08T17:43:14.199Z,100.00
2022-11-08T17:46:31.730Z,100.00
2022-11-08T17:49:47.999Z,100.00
2022-11-08T17:53:04.654Z,100.00
2022-11-08T17:56:22.752Z,100.00
2022-11-08T17:59:39.221Z,100.00
2022-11-08T18:02:55.427Z,100.00
2022-11-08T18:06:14.976Z,100.00
2022-11-08T18:09:29.313Z,100.00
2022-11-08T18:12:45.849Z,100.00
2022-11-08T18:16:03.799Z,100.00
2022-11-08T18:19:20.395Z,100.00
2022-11-08T18:22:36.918Z,100.00
2022-11-08T18:25:57.421Z,100.00
2022-11-08T18:29:14.320Z,100.00
2022-11-08T18:32:31.180Z,100.00
2022-11-08T18:35:47.709Z,100.00
2022-11-08T18:39:06.529Z,100.00
2022-11-08T18:42:22.676Z,100.00
2022-11-08T18:45:39.559Z,100.00
2022-11-08T18:48:56.760Z,100.00
2022-11-08T18:52:14.121Z,100.00
2022-11-08T18:55:35.092Z,100.00
2022-11-08T18:58:53.278Z,100.00
2022-11-08T19:02:09.475Z,100.00
2022-11-08T19:05:25.999Z,100.00
2022-11-08T19:08:42.904Z,100.00
2022-11-08T19:12:04.600Z,100.00
2022-11-08T19:15:19.321Z,100.00
2022-11-08T19:18:38.361Z,100.00
2022-11-08T19:21:54.761Z,100.00
2022-11-08T19:25:12.356Z,100.00
2022-11-08T19:28:32.810Z,100.00
2022-11-08T19:31:48.737Z,100.00
2022-11-08T19:35:05.293Z,100.00
2022-11-08T19:38:23.905Z,100.00
2022-11-08T19:41:40.248Z,100.00
2022-11-08T19:44:56.626Z,100.00
2022-11-08T19:48:14.438Z,100.00
2022-11-08T19:51:33.649Z,100.00
2022-11-08T19:54:51.789Z,100.00
2022-11-08T19:58:09.862Z,100.00
2022-11-08T20:01:30.906Z,100.00
2022-11-08T20:04:47.712Z,100.00
2022-11-08T20:08:05.818Z,100.00
2022-11-08T20:11:24.972Z,100.00
2022-11-08T20:14:41.489Z,100.00
2022-11-08T20:17:57.884Z,100.00
2022-11-08T20:21:17.293Z,100.00
2022-11-08T20:24:31.233Z,100.00
2022-11-08T20:27:47.135Z,100.00
2022-11-08T20:31:11.293Z,100.00
2022-11-08T20:34:29.789Z,100.00
2022-11-08T20:37:46.330Z,100.00
2022-11-08T20:41:05.267Z,100.00
2022-11-08T20:44:23.580Z,100.00
2022-11-08T20:47:41.147Z,100.00
2022-11-08T20:50:58.152Z,100.00
2022-11-08T20:54:17.008Z,100.00
2022-11-08T20:57:34.167Z,100.00
2022-11-08T21:00:58.195Z,100.00
2022-11-08T21:04:12.478Z,100.00
2022-11-08T21:10:49.078Z,100.00
2022-11-08T21:14:05.989Z,100.00
2022-11-08T21:17:22.783Z,100.00
2022-11-08T21:20:39.521Z,100.00
2022-11-08T21:23:57.304Z,100.00
2022-11-08T21:27:15.530Z,100.00
2022-11-08T21:30:32.164Z,100.00
2022-11-08T21:33:51.707Z,100.00
2022-11-08T21:37:06.051Z,100.00
2022-11-08T21:40:23.069Z,100.00
2022-11-08T21:43:43.799Z,100.00
2022-11-08T21:47:00.117Z,100.00
2022-11-08T21:50:17.823Z,100.00
2022-11-08T21:53:34.209Z,100.00
2022-11-08T21:56:50.453Z,100.00
2022-11-08T22:00:06.865Z,100.00
2022-11-08T22:03:23.756Z,100.00
2022-11-08T22:06:44.911Z,100.00
2022-11-08T22:09:58.703Z,100.00
2022-11-08T22:13:15.051Z,100.00
2022-11-08T22:16:31.182Z,100.00
2022-11-08T22:19:47.644Z,100.00
2022-11-08T22:23:08.813Z,100.00
2022-11-08T22:26:23.232Z,100.00
2022-11-08T22:29:39.524Z,100.00
2022-11-08T22:32:55.850Z,100.00
2022-11-08T22:36:12.657Z,100.00
2022-11-08T22:39:31.323Z,100.00
2022-11-08T22:42:47.733Z,100.00
2022-11-08T22:46:04.089Z,100.00
2022-11-08T22:49:23.646Z,100.00
2022-11-08T22:52:39.840Z,100.00
2022-11-08T22:55:56.096Z,100.00
2022-11-08T22:59:13.518Z,100.00
2022-11-08T23:02:33.221Z,100.00
2022-11-08T23:05:48.800Z,100.00
2022-11-08T23:09:05.662Z,100.00
2022-11-08T23:12:38.281Z,100.00
2022-11-08T23:16:08.499Z,100.00
2022-11-08T23:19:41.765Z,100.00
2022-11-08T23:26:16.475Z,100.00
2022-11-08T23:29:46.707Z,100.00
2022-11-08T23:33:06.092Z,100.00
2022-11-08T23:36:21.060Z,100.00
2022-11-08T23:39:40.088Z,100.00
2022-11-08T23:43:23.170Z,100.00
2022-11-08T23:46:39.368Z,100.00
2022-11-08T23:49:55.843Z,100.00
2022-11-08T23:53:14.449Z,100.00
2022-11-08T23:56:33.307Z,100.00
2022-11-08T23:59:49.563Z,100.00
